Time;durP1;ratioP1;P1;durP2;ratioP2;P2;SDS_P1;SDS_P2;PMS_P1;PMS_P2;Temp;Humidity;BMP_temperature;BMP_pressure;BME280_temperature;BME280_humidity;BME280_pressure;Samples;Min_cycle;Max_cycle;Signal;HPM_P1;HPM_P2
2021/07/07 00:00:20;;;;;;;7.50;5.80;;;;;;;24.30;66.25;100494.59;1693746;83;21038;-65
2021/07/07 00:02:47;;;;;;;8.43;5.30;;;;;;;24.30;66.24;100495.94;1659826;84;21086;-67
2021/07/07 00:05:15;;;;;;;10.85;6.30;;;;;;;24.26;65.90;100496.06;1683682;84;22289;-67
2021/07/07 00:07:43;;;;;;;7.65;5.47;;;;;;;24.24;65.95;100500.83;1692181;83;21096;-67
2021/07/07 00:10:14;;;;;;;6.87;4.67;;;;;;;24.25;66.15;100498.97;1693801;83;21046;-66
2021/07/07 00:12:41;;;;;;;9.38;5.50;;;;;;;24.24;66.26;100506.21;1682332;84;21690;-66
2021/07/07 00:15:14;;;;;;;10.32;4.80;;;;;;;24.20;66.42;100502.27;1666988;85;21067;-65
2021/07/07 00:17:42;;;;;;;7.58;5.17;;;;;;;24.12;66.32;100507.87;1652625;85;21123;-69
2021/07/07 00:20:10;;;;;;;8.33;5.40;;;;;;;24.06;66.25;100511.41;1665740;85;21075;-66
2021/07/07 00:22:37;;;;;;;10.00;5.20;;;;;;;24.01;66.41;100515.24;1662854;85;21027;-66
2021/07/07 00:25:05;;;;;;;9.58;5.70;;;;;;;23.98;66.44;100513.78;1667635;84;21139;-68
2021/07/07 00:27:32;;;;;;;12.30;5.42;;;;;;;23.98;66.48;100511.63;1668163;84;21064;-66
2021/07/07 00:30:00;;;;;;;8.23;5.45;;;;;;;23.96;66.54;100513.70;1665347;85;21125;-66
2021/07/07 00:32:27;;;;;;;9.90;5.60;;;;;;;23.96;66.65;100509.67;1646224;85;21083;-69
2021/07/07 00:34:54;;;;;;;12.20;6.08;;;;;;;23.93;66.84;100513.06;1663906;85;21592;-66
2021/07/07 00:37:20;;;;;;;9.00;5.40;;;;;;;23.92;66.74;100515.45;1666273;85;22294;-67
2021/07/07 00:39:47;;;;;;;7.53;5.55;;;;;;;23.89;66.63;100522.58;1647160;85;21087;-66
2021/07/07 00:42:13;;;;;;;7.35;5.40;;;;;;;23.88;66.79;100517.41;1662851;85;21118;-67
2021/07/07 00:44:40;;;;;;;8.20;5.15;;;;;;;23.93;66.84;100520.30;1650696;85;21095;-67
2021/07/07 00:47:06;;;;;;;9.55;5.50;;;;;;;23.95;66.93;100520.09;1660761;85;21067;-65
2021/07/07 00:49:33;;;;;;;10.25;6.47;;;;;;;23.98;66.78;100522.38;1668315;84;21126;-68
2021/07/07 00:51:59;;;;;;;7.37;5.50;;;;;;;23.98;66.64;100515.13;1669365;85;21085;-68
2021/07/07 00:54:25;;;;;;;7.95;5.72;;;;;;;23.98;66.54;100520.50;1658627;85;21103;-66
2021/07/07 00:56:52;;;;;;;10.45;5.37;;;;;;;23.97;66.43;100522.05;1664781;83;21586;-64
2021/07/07 00:59:19;;;;;;;10.78;5.55;;;;;;;23.98;66.37;100523.72;1666751;85;21099;-65
2021/07/07 01:01:46;;;;;;;7.85;5.28;;;;;;;24.03;66.25;100523.92;1688272;84;21075;-66
2021/07/07 01:04:13;;;;;;;11.48;5.97;;;;;;;24.06;66.23;100524.85;1690849;84;21090;-66
2021/07/07 01:06:39;;;;;;;8.20;5.30;;;;;;;24.06;66.11;100518.95;1704580;84;21839;-65
2021/07/07 01:09:06;;;;;;;8.25;5.47;;;;;;;24.07;66.24;100526.48;1688049;84;21063;-67
2021/07/07 01:11:33;;;;;;;8.68;5.80;;;;;;;24.04;66.38;100522.86;1672150;84;21554;-70
2021/07/07 01:14:00;;;;;;;9.60;6.25;;;;;;;24.01;66.43;100516.06;1673351;82;21370;-65
2021/07/07 01:16:27;;;;;;;7.55;5.25;;;;;;;24.00;66.67;100521.64;1687979;82;21517;-66
2021/07/07 01:18:55;;;;;;;10.03;6.00;;;;;;;24.03;66.61;100523.92;1692412;84;21154;-68
2021/07/07 01:21:23;;;;;;;9.25;6.40;;;;;;;24.04;66.73;100521.52;1688330;84;21110;-69
2021/07/07 01:23:52;;;;;;;8.93;5.70;;;;;;;24.03;66.40;100523.92;1691354;84;21417;-67
2021/07/07 01:26:19;;;;;;;7.47;5.42;;;;;;;24.04;66.26;100522.86;1692065;84;21047;-66
2021/07/07 01:28:45;;;;;;;8.35;6.08;;;;;;;24.04;66.26;100525.55;1694105;84;21125;-65
2021/07/07 01:31:12;;;;;;;9.58;6.08;;;;;;;24.02;66.44;100536.51;1691983;83;21962;-72
2021/07/07 01:33:39;;;;;;;9.13;5.47;;;;;;;24.01;66.22;100536.74;1685711;84;21106;-68
2021/07/07 01:36:05;;;;;;;7.70;5.10;;;;;;;24.02;66.29;100537.03;1664200;84;21066;-67
2021/07/07 01:38:31;;;;;;;7.95;5.87;;;;;;;24.01;66.57;100530.84;1662797;84;21130;-68
2021/07/07 01:40:58;;;;;;;9.18;5.85;;;;;;;24.02;66.47;100533.00;1685547;84;21119;-66
2021/07/07 01:43:26;;;;;;;7.47;6.00;;;;;;;23.99;66.54;100540.13;1663433;84;21107;-65
2021/07/07 01:45:52;;;;;;;9.38;5.70;;;;;;;23.94;66.52;100538.09;1687145;84;21584;-65
2021/07/07 01:48:19;;;;;;;9.15;5.60;;;;;;;23.91;66.45;100541.19;1670548;84;21086;-68
2021/07/07 01:50:46;;;;;;;7.67;4.55;;;;;;;23.89;66.39;100544.08;1688326;84;21070;-66
2021/07/07 01:53:13;;;;;;;9.00;5.20;;;;;;;23.90;66.37;100543.02;1687790;84;21756;-67
2021/07/07 01:55:39;;;;;;;7.92;4.70;;;;;;;23.93;66.32;100542.62;1685682;84;21071;-68
2021/07/07 01:58:06;;;;;;;10.03;5.58;;;;;;;23.95;66.11;100549.13;1697387;83;21023;-67
2021/07/07 02:00:34;;;;;;;10.15;5.25;;;;;;;23.94;66.35;100547.50;1675742;83;21043;-65
2021/07/07 02:03:01;;;;;;;7.20;5.12;;;;;;;23.90;66.43;100551.61;1677426;83;21130;-65
2021/07/07 02:05:32;;;;;;;9.73;5.37;;;;;;;23.88;66.50;100553.16;1698238;83;21063;-72
2021/07/07 02:08:00;;;;;;;6.97;4.70;;;;;;;23.86;66.33;100560.61;1702530;83;21169;-70
2021/07/07 02:10:26;;;;;;;7.83;5.30;;;;;;;23.87;66.10;100554.21;1683228;83;21340;-65
2021/07/07 02:12:53;;;;;;;6.70;4.70;;;;;;;23.89;66.00;100558.86;1701578;83;21075;-69
2021/07/07 02:15:22;;;;;;;7.12;5.10;;;;;;;23.92;65.82;100562.98;1697206;83;21462;-66
2021/07/07 02:17:49;;;;;;;7.67;4.90;;;;;;;23.89;65.86;100566.92;1676708;83;21074;-64
2021/07/07 02:20:15;;;;;;;7.53;4.92;;;;;;;23.86;65.80;100569.20;1672963;83;21224;-67
2021/07/07 02:22:42;;;;;;;7.47;4.97;;;;;;;23.81;65.55;100575.67;1701007;83;22395;-66
2021/07/07 02:25:22;;;;;;;6.58;4.70;;;;;;;23.78;65.45;100575.55;1697260;83;21055;-67
2021/07/07 02:27:51;;;;;;;7.35;4.70;;;;;;;23.78;65.39;100574.20;1701250;82;21090;-68
2021/07/07 02:30:19;;;;;;;7.53;5.05;;;;;;;23.81;65.51;100577.02;1699136;83;21668;-68
2021/07/07 02:32:46;;;;;;;7.75;5.17;;;;;;;23.84;65.55;100580.64;1696995;82;21683;-65
2021/07/07 02:35:17;;;;;;;8.18;5.03;;;;;;;23.85;65.66;100583.13;1703171;83;21509;-66
2021/07/07 02:37:44;;;;;;;8.65;5.67;;;;;;;23.84;65.18;100581.48;1681198;83;21122;-64
2021/07/07 02:40:13;;;;;;;7.60;5.35;;;;;;;23.81;65.22;100585.08;1697535;83;21039;-68
2021/07/07 02:42:39;;;;;;;7.97;4.75;;;;;;;23.79;64.54;100587.97;1693734;83;21067;-68
2021/07/07 02:45:08;;;;;;;9.10;5.08;;;;;;;23.76;64.29;100584.34;1671533;83;21759;-66
2021/07/07 02:47:34;;;;;;;7.95;4.58;;;;;;;23.67;64.36;100586.89;1698797;83;21070;-68
2021/07/07 02:50:00;;;;;;;8.85;5.28;;;;;;;23.63;64.72;100588.34;1698065;83;21809;-67
2021/07/07 02:52:27;;;;;;;9.10;4.80;;;;;;;23.65;64.81;100588.44;1698099;83;21094;-65
2021/07/07 02:54:54;;;;;;;8.95;5.30;;;;;;;23.65;64.95;100594.34;1685214;83;22186;-65
2021/07/07 02:57:20;;;;;;;8.85;4.80;;;;;;;23.62;65.14;100589.37;1692855;83;21130;-64
2021/07/07 02:59:47;;;;;;;9.20;5.30;;;;;;;23.59;65.47;100594.65;1689659;83;21718;-69
2021/07/07 03:02:13;;;;;;;10.90;5.92;;;;;;;23.56;65.53;100591.84;1696098;83;21074;-70
2021/07/07 03:04:39;;;;;;;8.35;4.50;;;;;;;23.56;65.70;100595.05;1698091;83;21626;-67
2021/07/07 03:07:07;;;;;;;8.48;5.10;;;;;;;23.55;65.86;100594.23;1675691;83;21117;-66
2021/07/07 03:09:34;;;;;;;10.18;5.00;;;;;;;23.59;65.67;100598.67;1669830;83;21195;-65
2021/07/07 03:12:01;;;;;;;8.25;5.28;;;;;;;23.64;65.75;100602.10;1699366;83;21530;-69
2021/07/07 03:14:27;;;;;;;9.53;5.30;;;;;;;23.65;65.64;100609.92;1682621;83;21062;-65
2021/07/07 03:16:54;;;;;;;8.05;5.17;;;;;;;23.62;65.18;100616.23;1695894;83;21047;-64
2021/07/07 03:19:21;;;;;;;8.20;5.53;;;;;;;23.57;65.23;100615.52;1700437;83;21046;-65
2021/07/07 03:21:47;;;;;;;8.65;5.17;;;;;;;23.53;65.37;100617.75;1692946;83;21062;-65
2021/07/07 03:24:13;;;;;;;7.03;4.45;;;;;;;23.48;65.37;100618.06;1695996;83;21139;-67
2021/07/07 03:26:39;;;;;;;7.53;5.35;;;;;;;23.45;65.72;100615.77;1685758;83;21058;-68
2021/07/07 03:29:06;;;;;;;10.55;4.90;;;;;;;23.46;65.60;100620.95;1688806;83;21046;-64
2021/07/07 03:31:32;;;;;;;8.03;5.25;;;;;;;23.48;65.71;100622.09;1692987;83;21078;-66
2021/07/07 03:33:58;;;;;;;11.45;5.35;;;;;;;23.49;65.57;100627.26;1699155;83;21632;-66
2021/07/07 03:36:25;;;;;;;9.55;5.35;;;;;;;23.45;65.11;100631.88;1699865;83;21107;-64
2021/07/07 03:38:51;;;;;;;8.43;5.70;;;;;;;23.36;65.06;100633.41;1698864;83;21067;-64
2021/07/07 03:41:17;;;;;;;8.73;6.45;;;;;;;23.28;65.23;100633.58;1706286;83;21063;-66
2021/07/07 03:43:44;;;;;;;8.15;5.80;;;;;;;23.24;65.22;100632.33;1701694;83;21004;-67
2021/07/07 03:46:10;;;;;;;7.90;5.42;;;;;;;23.23;65.44;100636.55;1699884;83;21052;-67
2021/07/07 03:48:38;;;;;;;10.75;6.25;;;;;;;23.26;65.11;100640.19;1693885;83;21035;-67
2021/07/07 03:51:04;;;;;;;8.28;5.28;;;;;;;23.23;65.08;100644.61;1690480;83;21115;-67
2021/07/07 03:53:31;;;;;;;9.35;5.95;;;;;;;23.21;64.97;100641.30;1700687;83;21063;-74
2021/07/07 03:55:58;;;;;;;9.30;5.35;;;;;;;23.14;65.20;100645.30;1693656;83;21557;-67
2021/07/07 03:58:24;;;;;;;9.08;5.80;;;;;;;23.08;65.34;100642.91;1690174;83;21097;-64
2021/07/07 04:00:50;;;;;;;8.50;5.85;;;;;;;23.04;65.43;100648.83;1668107;84;21367;-65
2021/07/07 04:03:17;;;;;;;9.78;5.45;;;;;;;22.99;65.15;100644.88;1685430;84;21058;-65
2021/07/07 04:05:44;;;;;;;7.83;5.55;;;;;;;23.00;64.91;100643.86;1683003;84;21087;-67
2021/07/07 04:08:10;;;;;;;8.03;4.53;;;;;;;23.04;65.02;100640.27;1690638;84;21690;-65
2021/07/07 04:10:37;;;;;;;10.82;6.10;;;;;;;23.11;65.16;100641.14;1689459;84;21114;-65
2021/07/07 04:13:04;;;;;;;6.58;4.85;;;;;;;23.16;64.81;100647.27;1692374;83;21290;-69
2021/07/07 04:15:30;;;;;;;7.65;5.40;;;;;;;23.18;64.82;100647.39;1693025;82;21122;-67
2021/07/07 04:17:57;;;;;;;6.83;5.15;;;;;;;23.27;65.10;100645.88;1687934;82;21698;-66
2021/07/07 04:20:24;;;;;;;7.87;5.03;;;;;;;23.35;64.81;100647.88;1694620;84;21058;-66
2021/07/07 04:22:50;;;;;;;9.08;5.70;;;;;;;23.44;64.68;100653.89;1674716;84;22334;-66
2021/07/07 04:25:17;;;;;;;7.20;5.10;;;;;;;23.53;64.54;100649.98;1694873;82;21091;-63
2021/07/07 04:27:44;;;;;;;7.87;4.75;;;;;;;23.66;64.04;100653.23;1697758;82;21110;-68
2021/07/07 04:30:14;;;;;;;8.88;4.97;;;;;;;23.76;63.25;100656.88;1693513;80;21054;-71
2021/07/07 04:32:41;;;;;;;7.17;4.53;;;;;;;23.87;62.89;100659.50;1701541;82;21356;-67
2021/07/07 04:35:09;;;;;;;8.65;5.22;;;;;;;23.92;62.70;100654.34;1720970;80;21951;-67
2021/07/07 04:37:37;;;;;;;8.33;5.55;;;;;;;23.93;62.37;100656.83;1723083;82;21067;-69
2021/07/07 04:40:07;;;;;;;7.80;5.08;;;;;;;23.96;62.26;100664.20;1716803;81;21011;-70
2021/07/07 04:42:34;;;;;;;7.97;4.80;;;;;;;23.96;62.14;100662.85;1719991;82;21376;-66
2021/07/07 04:45:00;;;;;;;6.95;4.53;;;;;;;23.96;61.85;100670.92;1722185;82;21253;-66
2021/07/07 04:47:28;;;;;;;6.55;4.10;;;;;;;23.98;61.73;100675.56;1719036;82;21095;-67
2021/07/07 04:49:55;;;;;;;6.62;3.70;;;;;;;24.06;61.02;100676.72;1721011;82;21082;-68
2021/07/07 04:52:21;;;;;;;8.88;4.35;;;;;;;24.14;60.74;100674.33;1701176;82;21716;-69
2021/07/07 04:54:48;;;;;;;7.95;5.03;;;;;;;24.19;60.36;100679.42;1721204;80;21078;-66
2021/07/07 04:57:14;;;;;;;7.90;4.33;;;;;;;24.23;60.76;100677.14;1719830;80;21118;-69
2021/07/07 04:59:41;;;;;;;9.63;4.95;;;;;;;24.25;60.33;100674.55;1705664;82;21142;-69
2021/07/07 05:02:07;;;;;;;7.80;4.70;;;;;;;24.25;60.03;100676.41;1726775;82;21000;-67
2021/07/07 05:04:34;;;;;;;6.62;4.55;;;;;;;24.23;60.63;100679.84;1735452;82;21308;-68
2021/07/07 05:07:01;;;;;;;6.35;4.05;;;;;;;24.20;59.96;100683.75;1731487;82;21126;-69
2021/07/07 05:09:28;;;;;;;6.67;3.92;;;;;;;24.19;60.04;100686.14;1729837;82;21156;-68
2021/07/07 05:11:54;;;;;;;5.78;3.95;;;;;;;24.20;59.44;100693.16;1726132;82;21082;-73
2021/07/07 05:14:20;;;;;;;6.15;4.03;;;;;;;24.20;58.70;100693.16;1724748;82;21039;-66
2021/07/07 05:16:47;;;;;;;5.37;3.67;;;;;;;24.21;58.11;100689.94;1711318;82;21026;-66
2021/07/07 05:19:13;;;;;;;5.85;3.67;;;;;;;24.21;58.19;100697.52;1730303;82;21528;-67
2021/07/07 05:21:40;;;;;;;7.95;3.75;;;;;;;24.25;57.51;100693.37;1724968;82;21015;-67
2021/07/07 05:24:07;;;;;;;7.70;3.87;;;;;;;24.28;57.87;100692.14;1708336;82;21318;-65
2021/07/07 05:26:34;;;;;;;5.17;2.98;;;;;;;24.37;57.02;100698.96;1731186;82;21062;-70
2021/07/07 05:29:01;;;;;;;5.70;3.10;;;;;;;24.47;55.76;100701.24;1722127;82;21050;-66
2021/07/07 05:31:27;;;;;;;5.55;3.30;;;;;;;24.58;55.32;100702.00;1710401;82;21046;-65
2021/07/07 05:33:53;;;;;;;9.63;3.90;;;;;;;24.68;54.95;100708.81;1701309;82;21125;-63
2021/07/07 05:36:20;;;;;;;4.87;3.08;;;;;;;24.75;55.09;100713.70;1724370;82;21059;-63
2021/07/07 05:38:46;;;;;;;4.90;2.83;;;;;;;24.84;54.23;100713.24;1727348;82;21063;-64
2021/07/07 05:41:12;;;;;;;6.28;3.42;;;;;;;24.88;53.34;100711.48;1726784;82;21042;-65
2021/07/07 05:43:39;;;;;;;4.80;2.85;;;;;;;24.92;52.86;100709.52;1729095;82;21090;-64
2021/07/07 05:46:05;;;;;;;9.63;3.62;;;;;;;24.96;52.71;100713.44;1708106;82;21437;-65
2021/07/07 05:48:32;;;;;;;7.03;2.95;;;;;;;25.02;52.54;100719.33;1730091;82;21134;-66
2021/07/07 05:50:58;;;;;;;5.30;2.72;;;;;;;25.09;52.71;100715.81;1729411;82;21086;-67
2021/07/07 05:53:25;;;;;;;5.58;2.62;;;;;;;25.13;52.33;100722.41;1687117;83;21100;-68
2021/07/07 05:55:52;;;;;;;5.10;2.75;;;;;;;25.13;51.33;100725.11;1667159;84;21115;-69
2021/07/07 05:58:18;;;;;;;4.60;2.47;;;;;;;25.12;51.27;100732.89;1643969;85;21142;-68
2021/07/07 06:00:45;;;;;;;5.70;3.10;;;;;;;25.09;51.91;100728.74;1652569;85;21437;-66
2021/07/07 06:03:11;;;;;;;5.78;2.87;;;;;;;25.06;52.05;100736.42;1657076;85;21032;-65
2021/07/07 06:05:39;;;;;;;6.45;3.02;;;;;;;24.98;51.88;100732.92;1638592;85;21074;-66
2021/07/07 06:08:06;;;;;;;7.12;3.37;;;;;;;24.90;52.21;100739.02;1639362;85;21115;-64
2021/07/07 06:10:33;;;;;;;6.45;3.58;;;;;;;24.85;52.11;100740.48;1670821;84;21086;-68
2021/07/07 06:12:59;;;;;;;7.17;3.58;;;;;;;24.78;52.30;100738.81;1685601;82;21476;-68
2021/07/07 06:15:27;;;;;;;5.50;3.27;;;;;;;24.72;52.75;100741.02;1680319;82;21051;-65
2021/07/07 06:17:54;;;;;;;6.03;3.35;;;;;;;24.64;52.55;100740.69;1666793;83;21042;-69
2021/07/07 06:20:20;;;;;;;5.97;3.42;;;;;;;24.55;53.07;100744.11;1651932;85;21116;-72
2021/07/07 06:22:46;;;;;;;6.50;3.85;;;;;;;24.53;53.66;100740.77;1651948;85;21444;-66
2021/07/07 06:25:16;;;;;;;5.42;2.90;;;;;;;24.51;53.82;100742.85;1652574;85;21124;-67
2021/07/07 06:27:43;;;;;;;5.40;3.12;;;;;;;24.53;53.67;100745.30;1652897;85;21074;-68
2021/07/07 06:30:12;;;;;;;5.35;3.20;;;;;;;24.56;53.66;100744.93;1653212;85;21387;-69
2021/07/07 06:32:39;;;;;;;6.10;3.17;;;;;;;24.64;54.26;100747.42;1661835;84;21081;-70
2021/07/07 06:35:06;;;;;;;5.20;2.75;;;;;;;24.74;52.79;100745.66;1673689;83;21130;-67
2021/07/07 06:37:33;;;;;;;5.08;2.50;;;;;;;24.83;52.18;100745.75;1665560;84;21160;-71
2021/07/07 06:40:02;;;;;;;7.47;2.92;;;;;;;24.92;51.86;100750.42;1670797;84;22223;-71
2021/07/07 06:42:30;;;;;;;4.85;2.25;;;;;;;25.02;51.47;100755.67;1681160;82;21492;-66
2021/07/07 06:44:58;;;;;;;5.58;2.50;;;;;;;25.09;49.89;100754.32;1670272;83;21087;-72
2021/07/07 06:47:26;;;;;;;4.17;2.08;;;;;;;25.14;49.03;100761.25;1651684;85;22362;-67
2021/07/07 06:49:52;;;;;;;7.87;2.08;;;;;;;25.19;48.05;100760.62;1652350;85;21135;-66
2021/07/07 06:52:19;;;;;;;4.17;1.65;;;;;;;25.22;46.74;100757.52;1649896;85;21290;-65
2021/07/07 06:54:47;;;;;;;4.70;1.82;;;;;;;25.24;46.74;100750.58;1636509;85;22266;-70
2021/07/07 06:57:13;;;;;;;4.53;1.92;;;;;;;25.29;47.22;100762.39;1649367;85;21131;-66
2021/07/07 06:59:40;;;;;;;4.03;1.98;;;;;;;25.33;47.44;100758.22;1674661;84;21085;-65
2021/07/07 07:02:06;;;;;;;5.08;2.20;;;;;;;25.40;47.25;100756.86;1675195;84;21144;-69
2021/07/07 07:04:32;;;;;;;6.20;2.80;;;;;;;25.46;47.11;100756.55;1679924;84;21584;-68
2021/07/07 07:06:59;;;;;;;4.80;2.80;;;;;;;25.48;47.45;100753.12;1678054;84;21077;-68
2021/07/07 07:09:26;;;;;;;6.10;2.45;;;;;;;25.51;47.53;100756.73;1678524;84;21168;-66
2021/07/07 07:11:53;;;;;;;5.55;2.47;;;;;;;25.54;47.12;100757.67;1679175;83;21567;-65
2021/07/07 07:14:20;;;;;;;4.62;2.37;;;;;;;25.54;48.19;100750.93;1697852;82;21088;-70
2021/07/07 07:16:46;;;;;;;4.47;2.33;;;;;;;25.56;48.38;100755.58;1674193;83;21575;-71
2021/07/07 07:19:14;;;;;;;4.60;2.62;;;;;;;25.59;48.24;100751.94;1697655;82;21093;-65
2021/07/07 07:21:41;;;;;;;5.60;2.72;;;;;;;25.64;48.65;100751.30;1699940;82;21018;-68
2021/07/07 07:24:07;;;;;;;8.55;2.98;;;;;;;25.69;49.33;100748.80;1699113;82;20938;-69
2021/07/07 07:26:34;;;;;;;5.12;2.52;;;;;;;25.76;49.92;100748.23;1654631;83;21580;-72
2021/07/07 07:29:00;;;;;;;5.50;2.40;;;;;;;25.83;49.41;100747.38;1677796;83;20986;-66
2021/07/07 07:31:27;;;;;;;5.62;2.92;;;;;;;25.87;48.95;100747.25;1656922;83;21684;-69
2021/07/07 07:33:53;;;;;;;5.47;2.80;;;;;;;25.86;48.54;100751.00;1657212;83;21101;-72
2021/07/07 07:36:21;;;;;;;4.60;2.60;;;;;;;25.84;49.21;100753.06;1694541;82;21088;-69
2021/07/07 07:38:49;;;;;;;5.83;3.20;;;;;;;25.83;49.73;100753.59;1682293;83;21727;-67
2021/07/07 07:41:15;;;;;;;4.55;2.52;;;;;;;25.84;50.08;100751.22;1680629;83;21653;-71
2021/07/07 07:43:44;;;;;;;5.20;2.80;;;;;;;25.86;50.24;100757.74;1676447;83;21518;-68
2021/07/07 07:46:10;;;;;;;6.58;3.12;;;;;;;25.89;50.66;100759.98;1708899;83;21098;-66
2021/07/07 07:48:36;;;;;;;6.30;2.90;;;;;;;25.92;50.64;100758.20;1655721;83;21045;-65
2021/07/07 07:51:03;;;;;;;5.42;2.83;;;;;;;25.98;50.27;100757.92;1677173;83;21398;-67
2021/07/07 07:53:31;;;;;;;4.78;2.67;;;;;;;26.05;50.65;100754.66;1652147;83;21136;-67
2021/07/07 07:55:59;;;;;;;6.37;3.37;;;;;;;26.12;50.07;100754.91;1700167;83;21271;-65
2021/07/07 07:58:26;;;;;;;7.60;2.55;;;;;;;26.19;50.58;100762.95;1698097;83;21073;-67
2021/07/07 08:00:54;;;;;;;4.20;2.20;;;;;;;26.27;49.50;100761.88;1697139;83;21714;-71
2021/07/07 08:03:21;;;;;;;7.30;3.40;;;;;;;26.32;48.75;100766.10;1677609;84;21583;-66
2021/07/07 08:05:47;;;;;;;4.95;2.55;;;;;;;26.35;48.13;100760.27;1672374;84;21116;-66
2021/07/07 08:08:13;;;;;;;5.40;2.90;;;;;;;26.42;48.12;100765.09;1695400;83;21060;-66
2021/07/07 08:10:40;;;;;;;5.37;2.85;;;;;;;26.50;48.50;100762.66;1703082;83;21677;-65
2021/07/07 08:13:06;;;;;;;5.15;2.65;;;;;;;26.60;49.29;100764.34;1655419;83;21092;-68
2021/07/07 08:15:34;;;;;;;5.03;2.60;;;;;;;26.69;48.93;100769.78;1701765;83;21410;-66
2021/07/07 08:18:00;;;;;;;4.17;2.22;;;;;;;26.75;47.96;100764.55;1682097;83;21378;-68
2021/07/07 08:20:27;;;;;;;5.50;2.05;;;;;;;26.76;47.81;100773.78;1676898;84;21089;-65
2021/07/07 08:22:54;;;;;;;6.95;2.55;;;;;;;26.78;47.03;100766.81;1695492;83;22229;-69
2021/07/07 08:25:21;;;;;;;6.37;2.77;;;;;;;26.83;48.26;100767.83;1681994;83;21136;-65
2021/07/07 08:27:47;;;;;;;4.28;2.30;;;;;;;26.88;48.19;100773.89;1687121;83;21081;-67
2021/07/07 08:30:15;;;;;;;4.65;2.35;;;;;;;26.96;48.32;100775.48;1658558;84;21152;-66
2021/07/07 08:32:42;;;;;;;5.67;2.12;;;;;;;27.02;47.41;100774.61;1700308;83;21088;-67
2021/07/07 08:35:09;;;;;;;5.10;2.50;;;;;;;27.09;47.11;100777.25;1703472;83;21488;-66
2021/07/07 08:37:36;;;;;;;6.58;2.62;;;;;;;27.14;46.92;100775.52;1701070;83;21414;-69
2021/07/07 08:40:05;;;;;;;4.42;2.40;;;;;;;27.14;47.28;100776.88;1653779;84;21053;-64
2021/07/07 08:42:34;;;;;;;5.83;2.55;;;;;;;27.19;47.30;100772.97;1655905;83;21571;-68
2021/07/07 08:45:08;;;;;;;4.80;2.20;;;;;;;27.26;46.55;100782.36;1696857;83;22405;-67
2021/07/07 08:47:37;;;;;;;4.85;2.77;;;;;;;27.32;46.88;100781.51;1695828;83;21072;-66
2021/07/07 08:50:07;;;;;;;4.65;2.33;;;;;;;27.38;46.09;100777.07;1706322;83;21042;-64
2021/07/07 08:52:33;;;;;;;5.33;2.62;;;;;;;27.43;45.94;100782.09;1685683;83;21102;-66
2021/07/07 08:54:59;;;;;;;5.87;2.50;;;;;;;27.48;46.81;100780.07;1704385;83;21083;-66
2021/07/07 08:57:27;;;;;;;4.75;2.50;;;;;;;27.52;46.50;100779.94;1697439;82;21061;-68
2021/07/07 08:59:54;;;;;;;6.70;2.72;;;;;;;27.56;46.44;100787.06;1687065;83;21819;-64
2021/07/07 09:02:20;;;;;;;4.85;2.60;;;;;;;27.54;46.68;100788.64;1690778;82;21115;-67
2021/07/07 09:04:47;;;;;;;6.22;2.27;;;;;;;27.58;46.46;100795.23;1673613;83;22171;-66
2021/07/07 09:07:24;;;;;;;5.12;2.60;;;;;;;27.65;46.13;100797.86;1697428;83;21106;-67
2021/07/07 09:09:52;;;;;;;6.97;2.70;;;;;;;27.72;46.52;100799.13;1654218;83;21078;-64
2021/07/07 09:14:34;;;;;;;4.12;2.12;;;;;;;27.83;44.30;100793.50;1780217;79;22265;-64
2021/07/07 09:17:02;;;;;;;4.90;2.52;;;;;;;27.73;44.41;100798.09;1742327;80;21098;-68
2021/07/07 09:19:30;;;;;;;5.10;2.25;;;;;;;27.71;44.45;100799.66;1746093;81;20931;-69
2021/07/07 09:22:05;;;;;;;5.97;2.35;;;;;;;27.79;45.40;100801.25;1743761;80;20917;-66
2021/07/07 09:24:28;;;;;;;4.28;2.20;;;;;;;27.95;45.10;100807.39;1744314;80;20974;-66
2021/07/07 09:27:08;;;;;;;5.05;2.08;;;;;;;28.13;44.68;100809.78;1744559;81;20955;-66
2021/07/07 09:29:53;;;;;;;5.37;2.45;;;;;;;28.27;45.29;100803.11;1721882;81;21294;-69
2021/07/07 09:32:23;;;;;;;5.00;2.50;;;;;;;28.40;44.57;100802.64;1741983;81;21188;-70
2021/07/07 09:34:51;;;;;;;5.05;2.35;;;;;;;28.50;44.06;100802.91;1742866;81;21043;-67
2021/07/07 09:37:32;;;;;;;8.20;2.60;;;;;;;28.53;43.55;100800.55;1725855;81;21134;-66
2021/07/07 09:39:58;;;;;;;4.97;2.70;;;;;;;28.62;43.79;100797.54;1737700;81;21058;-67
2021/07/07 09:42:29;;;;;;;7.25;2.30;;;;;;;28.66;43.83;100814.41;1725571;80;21078;-64
2021/07/07 09:45:00;;;;;;;5.15;2.60;;;;;;;28.64;42.70;100807.60;1736841;80;21130;-67
2021/07/07 09:47:27;;;;;;;7.12;2.20;;;;;;;28.52;42.32;100807.55;1740135;80;21042;-68
2021/07/07 09:49:55;;;;;;;4.22;2.00;;;;;;;28.40;42.42;100813.47;1722403;80;21116;-68
2021/07/07 09:52:25;;;;;;;4.78;2.25;;;;;;;28.34;43.32;100818.75;1724347;81;21035;-66
2021/07/07 09:54:52;;;;;;;4.90;2.40;;;;;;;28.33;42.81;100817.63;1737197;81;21054;-67
2021/07/07 09:57:18;;;;;;;3.83;2.00;;;;;;;28.33;42.65;100823.84;1710681;81;21209;-69
2021/07/07 09:59:45;;;;;;;4.62;2.15;;;;;;;28.37;42.88;100820.16;1718539;81;21073;-67
2021/07/07 10:02:12;;;;;;;4.20;2.15;;;;;;;28.42;43.01;100825.70;1712831;81;21575;-66
2021/07/07 10:04:41;;;;;;;5.20;2.17;;;;;;;28.47;42.95;100830.42;1697511;81;21027;-72
2021/07/07 10:07:09;;;;;;;5.22;2.40;;;;;;;28.51;42.76;100826.19;1702110;81;21718;-66
2021/07/07 10:09:39;;;;;;;6.30;2.75;;;;;;;28.57;42.05;100829.36;1715919;81;21170;-65
2021/07/07 10:12:06;;;;;;;5.08;2.62;;;;;;;28.64;41.63;100834.67;1718426;81;21616;-68
2021/07/07 10:14:33;;;;;;;6.75;2.20;;;;;;;28.71;42.76;100833.53;1719073;81;21053;-66
2021/07/07 10:16:59;;;;;;;6.17;2.10;;;;;;;28.79;41.75;100836.41;1716217;81;21054;-65
2021/07/07 10:19:26;;;;;;;4.78;1.90;;;;;;;28.84;41.52;100828.41;1712172;81;21121;-71
2021/07/07 10:21:53;;;;;;;3.92;2.00;;;;;;;28.87;41.54;100827.13;1701957;82;21093;-66
2021/07/07 10:24:23;;;;;;;4.72;2.45;;;;;;;28.84;42.29;100833.01;1721843;82;21313;-67
2021/07/07 10:26:51;;;;;;;4.65;2.10;;;;;;;28.84;43.01;100834.36;1717738;82;21580;-66
2021/07/07 10:29:17;;;;;;;4.72;2.52;;;;;;;28.86;42.18;100833.05;1677859;83;21164;-69
2021/07/07 10:31:58;;;;;;;4.47;2.60;;;;;;;28.88;42.35;100835.53;1700434;82;21133;-67
2021/07/07 10:34:27;;;;;;;4.33;2.25;;;;;;;28.93;42.54;100837.55;1718534;81;21127;-68
2021/07/07 10:36:56;;;;;;;4.03;2.17;;;;;;;28.97;42.06;100838.20;1715919;82;21049;-67
2021/07/07 10:39:23;;;;;;;4.62;2.55;;;;;;;29.00;41.79;100836.39;1723461;81;21451;-66
2021/07/07 10:41:53;;;;;;;7.42;2.42;;;;;;;29.05;42.35;100839.22;1721529;82;21329;-67
2021/07/07 10:44:29;;;;;;;4.83;2.62;;;;;;;29.09;42.45;100836.31;1713901;82;21090;-66
2021/07/07 10:47:11;;;;;;;6.47;2.70;;;;;;;29.06;42.47;100838.67;1717979;81;22245;-68
2021/07/07 10:49:48;;;;;;;4.85;2.60;;;;;;;29.04;42.90;100843.52;1713047;82;21046;-67
2021/07/07 10:52:17;;;;;;;5.53;2.62;;;;;;;29.07;42.45;100841.16;1717744;81;21074;-69
2021/07/07 10:54:59;;;;;;;6.10;2.70;;;;;;;29.06;41.42;100844.09;1703413;82;21098;-69
2021/07/07 10:57:35;;;;;;;6.67;2.87;;;;;;;29.08;42.12;100844.17;1714163;82;21529;-67
2021/07/07 10:59:55;;;;;;;4.70;2.60;;;;;;;29.08;42.27;100838.75;1700326;82;21038;-68
2021/07/07 11:02:26;;;;;;;7.25;3.00;;;;;;;29.06;42.16;100838.14;1716965;81;21569;-67
2021/07/07 11:04:56;;;;;;;4.10;2.20;;;;;;;29.09;41.92;100834.15;1712368;82;21054;-71
2021/07/07 11:07:35;;;;;;;6.50;2.55;;;;;;;29.09;42.64;100833.61;1700471;82;21110;-69
2021/07/07 11:10:13;;;;;;;4.22;2.33;;;;;;;29.11;42.46;100833.37;1712687;82;21153;-68
2021/07/07 11:12:45;;;;;;;6.35;2.60;;;;;;;29.09;41.70;100836.86;1718771;81;22475;-66
2021/07/07 11:15:19;;;;;;;4.15;2.00;;;;;;;29.06;41.37;100837.32;1714247;82;21049;-68
2021/07/07 11:17:53;;;;;;;6.58;2.50;;;;;;;29.09;41.82;100835.50;1711606;82;21090;-68
2021/07/07 11:20:29;;;;;;;5.62;2.70;;;;;;;29.14;40.18;100830.74;1714505;81;21117;-67
2021/07/07 11:23:02;;;;;;;4.72;2.25;;;;;;;29.12;40.12;100826.06;1712177;81;21077;-69
2021/07/07 11:25:37;;;;;;;4.35;2.17;;;;;;;29.09;40.95;100831.44;1710683;82;20899;-69
2021/07/07 11:28:07;;;;;;;4.85;2.15;;;;;;;29.16;40.05;100828.61;1716692;81;21097;-69